Time;durP1;ratioP1;P1;durP2;ratioP2;P2;SDS_P1;SDS_P2;PMS_P1;PMS_P2;Temp;Humidity;BMP_temperature;BMP_pressure;BME280_temperature;BME280_humidity;BME280_pressure;Samples;Min_cycle;Max_cycle;Signal;HPM_P1;HPM_P2
2024/02/07 00:01:46;;;;;;;7.70;3.60;;;;;;;8.66;100.00;97436.92;137219;1278;22087;-78
2024/02/07 00:04:47;;;;;;;5.10;3.00;;;;;;;8.67;100.00;97439.70;137250;1278;22110;-78
2024/02/07 00:07:48;;;;;;;7.30;3.20;;;;;;;8.68;100.00;97435.71;137229;1278;22123;-78
2024/02/07 00:10:49;;;;;;;6.20;2.90;;;;;;;8.69;100.00;97435.88;137251;1278;22079;-78
2024/02/07 00:13:50;;;;;;;6.70;3.50;;;;;;;8.71;100.00;97430.33;137307;1278;22096;-77
2024/02/07 00:16:51;;;;;;;8.50;3.10;;;;;;;8.71;100.00;97429.46;137281;1278;22193;-78
2024/02/07 00:19:52;;;;;;;7.10;3.20;;;;;;;8.74;100.00;97426.52;137304;1278;22116;-78
2024/02/07 00:22:54;;;;;;;12.60;3.30;;;;;;;8.74;100.00;97418.70;137289;1278;22788;-78
2024/02/07 00:25:55;;;;;;;4.30;2.40;;;;;;;8.75;100.00;97416.45;137271;1278;22357;-78
2024/02/07 00:28:56;;;;;;;27.10;4.00;;;;;;;8.74;100.00;97411.94;137309;1278;22380;-78
2024/02/07 00:31:57;;;;;;;15.10;3.40;;;;;;;8.74;100.00;97406.38;137286;1278;22096;-78
2024/02/07 00:34:58;;;;;;;8.50;3.30;;;;;;;8.75;100.00;97406.90;137287;1278;22120;-78
2024/02/07 00:37:59;;;;;;;14.50;3.10;;;;;;;8.75;100.00;97396.85;137259;1278;22028;-78
2024/02/07 00:41:00;;;;;;;10.10;3.10;;;;;;;8.77;100.00;97402.39;137267;1272;22130;-78
2024/02/07 00:44:01;;;;;;;119.40;6.60;;;;;;;8.77;100.00;97392.33;137273;1276;22055;-78
2024/02/07 00:47:02;;;;;;;8.50;3.30;;;;;;;8.76;100.00;97387.13;137297;1278;22148;-78
2024/02/07 00:50:04;;;;;;;7.80;3.30;;;;;;;8.75;100.00;97387.14;137321;1278;22063;-78
2024/02/07 00:53:05;;;;;;;9.20;3.20;;;;;;;8.75;100.00;97393.20;137281;1276;22081;-78
2024/02/07 00:56:06;;;;;;;5.90;3.00;;;;;;;8.75;100.00;97382.80;137252;1278;22103;-78
2024/02/07 00:59:07;;;;;;;9.60;3.50;;;;;;;8.75;100.00;97379.85;136984;1278;22130;-78
2024/02/07 01:02:08;;;;;;;18.90;3.30;;;;;;;8.75;100.00;97377.77;137230;1278;22084;-77
2024/02/07 01:05:09;;;;;;;73.70;5.00;;;;;;;8.78;100.00;97384.34;137235;1278;22135;-78
2024/02/07 01:08:10;;;;;;;17.50;2.70;;;;;;;8.82;100.00;97371.14;137227;1278;22147;-78
2024/02/07 01:11:11;;;;;;;13.90;3.50;;;;;;;8.84;100.00;97375.30;137216;1278;22058;-79
2024/02/07 01:14:12;;;;;;;5.30;2.30;;;;;;;8.82;100.00;97364.71;137229;1278;22055;-78
2024/02/07 01:17:13;;;;;;;8.50;2.90;;;;;;;8.80;100.00;97361.09;137237;1278;22110;-78
2024/02/07 01:20:15;;;;;;;7.20;2.80;;;;;;;8.78;100.00;97362.84;137208;1278;22094;-79
2024/02/07 01:23:16;;;;;;;6.10;2.60;;;;;;;8.77;100.00;97364.05;137232;1278;22153;-78
2024/02/07 01:26:17;;;;;;;7.10;2.70;;;;;;;8.76;100.00;97353.83;137229;1278;22120;-79
2024/02/07 01:29:18;;;;;;;6.70;2.50;;;;;;;8.74;100.00;97350.89;137258;1278;22094;-78
2024/02/07 01:32:19;;;;;;;16.70;3.00;;;;;;;8.73;100.00;97356.96;137275;1278;22179;-79
2024/02/07 01:35:20;;;;;;;5.90;2.50;;;;;;;8.75;100.00;97352.61;137301;1278;22072;-80
2024/02/07 01:38:24;;;;;;;9.60;3.30;;;;;;;8.74;100.00;97346.38;137281;1278;22064;-80
2024/02/07 01:41:26;;;;;;;4.40;2.70;;;;;;;8.74;100.00;97334.59;137272;1275;22712;-79
2024/02/07 01:44:28;;;;;;;6.70;2.50;;;;;;;8.73;100.00;97326.09;137301;1278;22131;-79
2024/02/07 01:47:29;;;;;;;5.90;3.10;;;;;;;8.70;100.00;97336.34;137269;1278;22487;-82
2024/02/07 01:50:30;;;;;;;8.60;2.50;;;;;;;8.71;100.00;97342.40;137262;1278;22676;-82
2024/02/07 01:53:33;;;;;;;7.10;3.20;;;;;;;8.74;100.00;97331.30;137231;1278;22682;-81
2024/02/07 01:56:34;;;;;;;15.00;3.00;;;;;;;8.74;100.00;97332.51;137247;1278;22105;-82
2024/02/07 01:59:35;;;;;;;10.10;2.70;;;;;;;8.76;100.00;97316.71;137276;1278;22111;-82
2024/02/07 02:02:36;;;;;;;6.40;2.70;;;;;;;8.76;100.00;97318.96;137266;1278;22124;-82
2024/02/07 02:05:40;;;;;;;10.80;3.10;;;;;;;8.75;100.00;97320.53;137273;1275;22073;-82
2024/02/07 02:08:41;;;;;;;6.40;2.60;;;;;;;8.73;100.00;97321.75;137238;1278;22116;-82
2024/02/07 02:11:46;;;;;;;6.60;2.50;;;;;;;8.73;100.00;97320.02;137257;1278;22051;-82
2024/02/07 02:14:47;;;;;;;4.60;2.20;;;;;;;8.74;100.00;97318.80;137259;1278;22096;-82
2024/02/07 02:17:48;;;;;;;5.60;2.80;;;;;;;8.73;100.00;97310.14;137282;1278;22249;-82
2024/02/07 02:20:49;;;;;;;5.20;2.80;;;;;;;8.73;100.00;97308.59;137266;1278;22069;-82
2024/02/07 02:23:50;;;;;;;6.10;2.30;;;;;;;8.71;100.00;97304.08;137305;1278;22035;-82
2024/02/07 02:26:53;;;;;;;4.10;2.20;;;;;;;8.71;100.00;97302.52;137253;1278;22621;-81
2024/02/07 02:29:54;;;;;;;8.00;2.50;;;;;;;8.70;100.00;97298.53;137230;1278;22211;-83
2024/02/07 02:32:55;;;;;;;9.40;2.60;;;;;;;8.72;100.00;97299.56;137239;1278;22209;-83
2024/02/07 02:35:59;;;;;;;10.00;2.70;;;;;;;8.73;100.00;97294.01;137227;1278;22163;-82
2024/02/07 02:39:00;;;;;;;8.50;2.60;;;;;;;8.73;100.00;97286.55;137212;1276;22032;-81
2024/02/07 02:42:01;;;;;;;7.50;2.70;;;;;;;8.75;100.00;97281.86;137223;1278;22126;-82
2024/02/07 02:45:03;;;;;;;5.60;2.50;;;;;;;8.76;100.00;97276.81;137230;1278;22100;-81
2024/02/07 02:48:04;;;;;;;5.60;2.60;;;;;;;8.73;100.00;97273.38;137211;1278;22110;-80
2024/02/07 02:51:05;;;;;;;6.90;2.50;;;;;;;8.72;100.00;97263.49;137222;1278;22104;-82
2024/02/07 02:54:06;;;;;;;5.40;2.30;;;;;;;8.73;100.00;97262.62;137261;1278;22120;-83
2024/02/07 02:57:08;;;;;;;4.40;2.00;;;;;;;8.73;100.00;97253.61;137227;1278;22479;-83
2024/02/07 03:00:10;;;;;;;5.20;3.00;;;;;;;8.72;100.00;97252.91;137278;1278;22422;-83
2024/02/07 03:03:13;;;;;;;5.10;2.40;;;;;;;8.68;100.00;97252.41;137254;1278;22135;-83
2024/02/07 03:06:28;;;;;;;6.50;3.00;;;;;;;8.61;100.00;97257.98;137281;1278;22074;-83
2024/02/07 03:09:30;;;;;;;7.40;3.10;;;;;;;8.56;100.00;97256.09;137304;1278;22126;-84
2024/02/07 03:12:32;;;;;;;12.00;2.90;;;;;;;8.54;100.00;97253.34;137280;1278;22070;-82
2024/02/07 03:15:33;;;;;;;7.20;3.30;;;;;;;8.48;100.00;97245.21;137239;1278;22136;-82
2024/02/07 03:18:34;;;;;;;9.20;3.50;;;;;;;8.43;100.00;97247.49;137236;1278;22560;-82
2024/02/07 03:21:36;;;;;;;10.30;3.40;;;;;;;8.36;100.00;97245.63;137269;1278;22101;-81
2024/02/07 03:24:38;;;;;;;6.90;2.90;;;;;;;8.28;100.00;97241.30;137289;1278;22228;-82
2024/02/07 03:27:39;;;;;;;7.40;3.30;;;;;;;8.21;100.00;97244.27;137235;1278;22477;-82
2024/02/07 03:30:40;;;;;;;7.70;3.00;;;;;;;8.14;100.00;97241.88;137235;1278;22094;-82
2024/02/07 03:33:43;;;;;;;6.80;3.10;;;;;;;8.08;100.00;97239.65;137191;1278;22150;-81
2024/02/07 03:36:44;;;;;;;8.20;2.70;;;;;;;8.04;100.00;97245.04;137234;1278;22101;-83
2024/02/07 03:39:45;;;;;;;9.60;2.70;;;;;;;7.99;100.00;97234.32;137233;1278;22120;-84
2024/02/07 03:42:46;;;;;;;12.50;3.00;;;;;;;7.94;100.00;97237.28;137296;1278;22119;-85
2024/02/07 03:45:47;;;;;;;11.90;3.00;;;;;;;7.87;100.00;97236.09;137242;1278;22238;-84
2024/02/07 03:48:48;;;;;;;7.50;2.60;;;;;;;7.81;100.00;97229.52;137293;1278;22100;-83
2024/02/07 03:51:52;;;;;;;5.70;2.70;;;;;;;7.75;100.00;97226.05;137247;1278;22092;-84
2024/02/07 03:54:53;;;;;;;6.40;2.90;;;;;;;7.67;100.00;97223.31;137281;1278;22520;-83
2024/02/07 03:57:54;;;;;;;10.70;3.10;;;;;;;7.59;100.00;97213.11;137256;1278;22134;-81
2024/02/07 04:00:55;;;;;;;5.90;3.20;;;;;;;7.52;100.00;97210.00;137317;1278;22139;-83
2024/02/07 04:03:57;;;;;;;5.00;2.70;;;;;;;7.48;100.00;97207.08;137302;1278;22211;-83
2024/02/07 04:06:58;;;;;;;5.70;3.00;;;;;;;7.44;100.00;97203.98;137295;1278;22091;-83
2024/02/07 04:09:59;;;;;;;6.80;2.80;;;;;;;7.41;100.00;97196.54;137288;1278;22556;-84
2024/02/07 05:15:47;;;;;;;6.80;2.60;;;;;;;7.71;100.00;97136.03;137125;1278;22083;-82
2024/02/07 05:18:48;;;;;;;4.60;2.10;;;;;;;7.74;100.00;97128.75;137140;1275;22901;-79
2024/02/07 05:21:50;;;;;;;6.70;2.70;;;;;;;7.74;100.00;97126.49;137109;1278;22109;-82
2024/02/07 05:24:52;;;;;;;6.60;2.30;;;;;;;7.74;100.00;97125.98;137177;1278;22099;-82
2024/02/07 05:27:53;;;;;;;3.90;2.40;;;;;;;7.75;100.00;97131.51;137163;1278;22117;-81
2024/02/07 05:30:54;;;;;;;7.10;2.80;;;;;;;7.78;100.00;97129.42;137167;1278;22919;-79
2024/02/07 05:33:55;;;;;;;3.90;2.20;;;;;;;7.79;100.00;97120.76;137110;1278;22125;-80
2024/02/07 05:36:56;;;;;;;6.30;2.10;;;;;;;7.79;100.00;97119.21;137068;1278;22560;-79
2024/02/07 05:39:57;;;;;;;5.80;2.70;;;;;;;7.78;100.00;97117.64;137161;1278;22608;-80
2024/02/07 05:42:58;;;;;;;4.10;2.30;;;;;;;7.75;100.00;97120.77;137157;1278;22151;-81
2024/02/07 05:46:00;;;;;;;6.20;2.30;;;;;;;7.74;100.00;97114.90;137168;1278;22114;-80
2024/02/07 05:49:01;;;;;;;8.10;2.70;;;;;;;7.71;100.00;97108.33;137187;1278;22188;-80
2024/02/07 05:52:03;;;;;;;11.80;3.10;;;;;;;7.69;100.00;97106.44;137146;1278;22623;-82
2024/02/07 05:55:04;;;;;;;3.90;2.60;;;;;;;7.70;100.00;97114.22;136996;1278;221429;-81
2024/02/07 05:58:09;;;;;;;5.20;2.30;;;;;;;7.69;100.00;97108.16;137217;1278;22176;-81
2024/02/07 06:01:11;;;;;;;6.90;2.50;;;;;;;7.70;100.00;97109.54;137188;1278;22077;-83
2024/02/07 06:04:13;;;;;;;6.10;2.50;;;;;;;7.71;100.00;97106.26;137224;1278;22124;-82
2024/02/07 06:07:14;;;;;;;5.00;2.20;;;;;;;7.68;100.00;97100.89;137210;1278;22114;-82
2024/02/07 06:10:19;;;;;;;8.80;2.60;;;;;;;7.64;100.00;97101.77;137227;1278;22074;-83
2024/02/07 06:13:21;;;;;;;11.90;3.20;;;;;;;7.61;100.00;97101.61;136937;1278;22113;-83
2024/02/07 06:16:22;;;;;;;5.00;2.70;;;;;;;7.61;100.00;97102.14;137148;1278;22847;-81
2024/02/07 06:19:24;;;;;;;3.90;2.50;;;;;;;7.61;100.00;97093.13;137055;1278;22083;-82
2024/02/07 06:22:25;;;;;;;6.30;2.60;;;;;;;7.64;100.00;97093.98;137121;1278;22958;-79
2024/02/07 06:25:27;;;;;;;7.60;2.50;;;;;;;7.62;100.00;97095.20;137148;1278;22123;-80
2024/02/07 06:28:28;;;;;;;5.90;2.80;;;;;;;7.61;100.00;97093.66;137148;1278;22133;-81
2024/02/07 06:31:30;;;;;;;8.30;3.70;;;;;;;7.59;100.00;97095.05;137190;1278;22086;-81
2024/02/07 06:34:31;;;;;;;6.20;4.20;;;;;;;7.59;100.00;97092.27;137179;1278;22097;-82
2024/02/07 06:37:35;;;;;;;7.70;3.70;;;;;;;7.58;100.00;97092.11;137229;1278;22651;-81
2024/02/07 06:40:39;;;;;;;7.80;3.30;;;;;;;7.55;100.00;97098.88;137175;1278;22218;-82
2024/02/07 06:43:40;;;;;;;8.10;3.90;;;;;;;7.56;100.00;97097.83;137161;1278;22471;-81
2024/02/07 06:46:42;;;;;;;6.70;3.30;;;;;;;7.56;100.00;97102.52;137181;1278;22152;-81
2024/02/07 06:49:43;;;;;;;7.10;2.80;;;;;;;7.55;100.00;97099.39;137208;1278;22135;-80
2024/02/07 06:52:44;;;;;;;6.90;2.80;;;;;;;7.56;100.00;97099.73;137167;1263;22161;-82
2024/02/07 06:55:45;;;;;;;5.20;2.90;;;;;;;7.55;100.00;97094.73;137139;1278;22610;-80
2024/02/07 06:58:46;;;;;;;11.20;3.60;;;;;;;7.54;100.00;97098.02;137147;1276;22131;-79
2024/02/07 07:01:47;;;;;;;12.30;4.30;;;;;;;7.56;100.00;97096.27;137153;1278;22100;-80
2024/02/07 07:04:49;;;;;;;7.40;4.30;;;;;;;7.58;100.00;97091.77;137166;1278;22112;-81
2024/02/07 07:07:50;;;;;;;10.20;3.70;;;;;;;7.59;100.00;97087.95;137183;1278;22585;-81
2024/02/07 07:10:51;;;;;;;6.60;3.20;;;;;;;7.61;100.00;97085.70;137237;1278;22497;-82
2024/02/07 07:13:52;;;;;;;9.10;3.70;;;;;;;7.63;100.00;97082.05;137215;1278;22078;-81
2024/02/07 07:16:53;;;;;;;7.70;3.30;;;;;;;7.66;100.00;97088.09;137227;1278;22122;-82
2024/02/07 07:19:54;;;;;;;7.70;3.10;;;;;;;7.69;100.00;97086.00;137264;1278;22194;-81
2024/02/07 07:22:57;;;;;;;6.00;2.40;;;;;;;7.72;100.00;97074.56;137304;1278;22131;-81
2024/02/07 07:25:58;;;;;;;7.60;3.10;;;;;;;7.76;100.00;97082.33;137347;1263;22167;-80
2024/02/07 07:28:59;;;;;;;7.80;3.80;;;;;;;7.81;100.00;97076.80;137318;1278;22172;-82
2024/02/07 07:32:00;;;;;;;10.00;3.80;;;;;;;7.89;100.00;97073.30;137271;1278;22132;-80
2024/02/07 07:35:01;;;;;;;7.30;3.30;;;;;;;7.95;100.00;97079.48;137267;1278;22135;-82
2024/02/07 07:38:04;;;;;;;12.60;6.30;;;;;;;8.01;100.00;97081.88;137217;1278;22152;-83
2024/02/07 07:41:05;;;;;;;10.30;3.50;;;;;;;8.10;100.00;97081.30;137203;1278;22538;-80
2024/02/07 07:44:06;;;;;;;6.50;2.90;;;;;;;8.13;100.00;97082.14;137250;1278;22208;-79
2024/02/07 07:47:07;;;;;;;7.60;3.50;;;;;;;8.15;100.00;97083.86;137242;1278;22169;-80
2024/02/07 07:50:08;;;;;;;7.60;3.30;;;;;;;8.17;100.00;97080.03;137209;1278;22893;-80
2024/02/07 07:53:09;;;;;;;5.90;3.40;;;;;;;8.20;100.00;97077.75;137180;1278;22106;-80
2024/02/07 07:56:12;;;;;;;9.30;3.30;;;;;;;8.24;100.00;97079.11;137152;1278;22124;-81
2024/02/07 07:59:13;;;;;;;5.20;2.70;;;;;;;8.31;100.00;97079.59;137131;1278;22145;-81
2024/02/07 08:02:14;;;;;;;6.10;3.00;;;;;;;8.41;100.00;97074.70;137168;1278;22145;-80
2024/02/07 08:05:15;;;;;;;11.70;3.10;;;;;;;8.53;100.00;97079.98;137177;1275;22126;-80
2024/02/07 08:08:17;;;;;;;8.90;3.10;;;;;;;8.62;100.00;97075.91;137179;1278;22274;-80
2024/02/07 08:11:18;;;;;;;6.90;3.20;;;;;;;8.72;100.00;97074.64;137153;1278;22095;-80
2024/02/07 08:14:19;;;;;;;9.60;3.20;;;;;;;8.72;100.00;97078.27;137219;1278;22573;-80
2024/02/07 08:17:20;;;;;;;5.30;2.80;;;;;;;8.72;100.00;97076.02;137205;1278;22260;-80
2024/02/07 08:20:22;;;;;;;6.00;2.80;;;;;;;8.72;100.00;97080.53;137191;1278;22121;-79
2024/02/07 08:23:23;;;;;;;6.50;2.60;;;;;;;8.73;100.00;97071.33;137204;1278;22152;-81
2024/02/07 08:26:24;;;;;;;6.00;3.00;;;;;;;8.76;100.00;97073.04;137215;1278;22153;-81
2024/02/07 08:29:25;;;;;;;6.60;2.80;;;;;;;8.80;100.00;97068.66;137239;1278;22122;-79
2024/02/07 08:32:26;;;;;;;6.80;2.60;;;;;;;8.83;100.00;97068.98;137168;1278;22106;-79
2024/02/07 08:35:27;;;;;;;6.70;2.80;;;;;;;8.84;100.00;97059.44;137210;1278;22108;-81
2024/02/07 08:38:28;;;;;;;5.00;3.20;;;;;;;8.87;100.00;97069.98;137184;1266;22163;-83
2024/02/07 08:41:30;;;;;;;7.90;3.50;;;;;;;8.91;100.00;97061.44;136991;1278;22130;-82
2024/02/07 08:44:31;;;;;;;6.50;3.00;;;;;;;8.99;100.00;97061.19;137253;1278;22197;-83
2024/02/07 08:47:32;;;;;;;4.00;2.50;;;;;;;9.04;100.00;97063.05;137280;1278;22126;-81
2024/02/07 08:50:33;;;;;;;4.40;2.30;;;;;;;9.07;100.00;97055.04;137243;1278;22104;-81
2024/02/07 08:53:34;;;;;;;5.80;2.60;;;;;;;9.07;100.00;97060.41;137257;1278;22133;-80
2024/02/07 08:56:35;;;;;;;6.20;2.00;;;;;;;9.08;100.00;97049.82;137282;1278;22192;-81
2024/02/07 08:59:39;;;;;;;4.60;2.40;;;;;;;9.09;100.00;97044.77;137270;1278;22089;-80
2024/02/07 09:02:40;;;;;;;3.40;2.30;;;;;;;9.10;100.00;97051.36;137211;1278;22128;-80
2024/02/07 09:05:41;;;;;;;5.10;2.30;;;;;;;9.11;100.00;97052.56;137228;1278;22059;-80
2024/02/07 09:08:42;;;;;;;6.70;2.70;;;;;;;9.15;100.00;97048.34;137213;1278;22132;-80
2024/02/07 09:11:43;;;;;;;5.00;2.60;;;;;;;9.19;100.00;97040.84;137189;1278;22094;-79
2024/02/07 09:14:44;;;;;;;3.50;2.30;;;;;;;9.22;100.00;97040.46;137196;1278;22128;-79
2024/02/07 09:17:45;;;;;;;4.60;2.20;;;;;;;9.17;100.00;97035.84;137125;1278;22089;-80
2024/02/07 09:20:46;;;;;;;9.00;2.40;;;;;;;9.09;100.00;97031.76;137140;1278;22428;-81
2024/02/07 09:23:47;;;;;;;5.50;2.30;;;;;;;9.08;100.00;97033.16;137145;1278;22142;-81
2024/02/07 09:26:49;;;;;;;2.90;2.10;;;;;;;9.09;100.00;97034.36;137193;1278;22094;-80
2024/02/07 09:29:50;;;;;;;4.80;2.80;;;;;;;9.08;100.00;97032.98;137178;1278;22130;-82
2024/02/07 09:32:51;;;;;;;8.20;3.30;;;;;;;9.07;100.00;97034.38;137197;1278;22119;-81
2024/02/07 09:35:52;;;;;;;5.00;3.20;;;;;;;9.02;100.00;97035.31;137163;1278;22517;-80
2024/02/07 09:38:53;;;;;;;5.50;2.80;;;;;;;8.95;100.00;97031.56;137185;1278;22121;-80
2024/02/07 09:41:54;;;;;;;4.30;3.00;;;;;;;8.89;100.00;97033.88;137247;1278;22105;-79
2024/02/07 09:44:55;;;;;;;5.50;2.50;;;;;;;8.84;100.00;97023.35;137202;1278;22089;-81
2024/02/07 09:47:56;;;;;;;7.30;2.80;;;;;;;8.84;100.00;97021.63;137203;1278;22695;-82
2024/02/07 09:50:58;;;;;;;5.90;3.00;;;;;;;8.80;100.00;97025.47;137195;1278;22212;-80
2024/02/07 09:53:59;;;;;;;6.40;2.40;;;;;;;8.82;100.00;97024.41;137165;1278;22138;-80
2024/02/07 09:57:00;;;;;;;8.40;3.40;;;;;;;8.83;100.00;97028.39;137163;1278;22123;-80
2024/02/07 10:00:01;;;;;;;5.00;2.80;;;;;;;8.86;100.00;97022.64;137163;1278;22940;-80
2024/02/07 10:03:02;;;;;;;8.80;2.80;;;;;;;8.90;100.00;97036.65;137200;1273;22147;-79
2024/02/07 10:06:04;;;;;;;5.90;2.70;;;;;;;8.97;100.00;97026.17;137214;1278;22163;-80
2024/02/07 10:09:05;;;;;;;4.10;2.40;;;;;;;9.00;100.00;97028.91;137206;1278;22123;-80
2024/02/07 10:12:06;;;;;;;3.00;2.40;;;;;;;9.00;100.00;97031.70;137261;1278;22479;-80
2024/02/07 10:15:07;;;;;;;6.90;3.40;;;;;;;9.00;100.00;97038.45;137297;1278;22146;-80
2024/02/07 10:18:08;;;;;;;5.00;2.70;;;;;;;9.02;100.00;97024.39;137304;1278;22625;-81
2024/02/07 10:21:09;;;;;;;3.70;2.70;;;;;;;9.02;100.00;97027.15;137302;1278;22459;-81
2024/02/07 10:24:11;;;;;;;9.00;3.20;;;;;;;9.00;100.00;97027.87;137304;1278;22560;-80
2024/02/07 10:27:12;;;;;;;4.20;2.60;;;;;;;9.03;100.00;97033.91;137239;1278;22122;-80
2024/02/07 10:30:14;;;;;;;5.30;2.40;;;;;;;9.04;100.00;97035.63;137191;1278;22452;-80
2024/02/07 10:33:15;;;;;;;6.10;3.00;;;;;;;9.04;100.00;97037.19;137212;1278;22104;-79
2024/02/07 10:36:16;;;;;;;4.00;2.90;;;;;;;9.01;100.00;97032.02;137255;1278;22165;-80
2024/02/07 10:39:17;;;;;;;5.00;2.70;;;;;;;9.00;100.00;97030.12;137183;1266;22137;-80
2024/02/07 10:42:19;;;;;;;6.20;2.90;;;;;;;9.01;100.00;97028.20;137172;1278;22099;-80
2024/02/07 10:45:20;;;;;;;5.90;2.40;;;;;;;9.09;100.00;97033.66;137170;1278;22138;-81
2024/02/07 10:48:21;;;;;;;5.90;2.80;;;;;;;9.17;100.00;97036.36;137188;1278;22128;-80
2024/02/07 10:51:22;;;;;;;7.30;3.10;;;;;;;9.22;100.00;97041.67;137193;1278;22126;-80
2024/02/07 10:54:23;;;;;;;4.90;2.80;;;;;;;9.38;100.00;97039.56;137250;1278;22749;-83
2024/02/07 10:57:27;;;;;;;6.50;3.40;;;;;;;9.50;100.00;97043.77;137310;1278;22089;-81
2024/02/07 11:00:29;;;;;;;7.60;3.20;;;;;;;9.41;100.00;97047.34;137210;1278;22103;-81
2024/02/07 11:03:30;;;;;;;11.80;4.70;;;;;;;9.30;100.00;97055.29;137216;1278;22645;-81
2024/02/07 11:06:32;;;;;;;10.70;4.50;;;;;;;9.15;100.00;97059.45;137177;1278;22062;-80
2024/02/07 11:09:33;;;;;;;4.40;2.70;;;;;;;8.96;100.00;97084.98;137204;1278;22695;-81
2024/02/07 11:12:34;;;;;;;4.10;2.70;;;;;;;8.20;100.00;97125.91;137182;1278;22102;-83
2024/02/07 11:15:35;;;;;;;2.70;2.50;;;;;;;6.90;100.00;97142.95;137254;1278;22124;-82
2024/02/07 11:18:37;;;;;;;4.30;3.20;;;;;;;5.95;100.00;97147.14;137210;1278;23415;-82
2024/02/07 11:21:38;;;;;;;5.20;4.20;;;;;;;5.47;100.00;97151.92;137215;1273;22137;-81
2024/02/07 11:24:39;;;;;;;5.90;3.00;;;;;;;5.17;100.00;97167.27;137226;1278;22165;-83
2024/02/07 11:27:40;;;;;;;5.90;3.60;;;;;;;4.82;100.00;97172.54;137216;1278;22123;-83
2024/02/07 11:30:41;;;;;;;4.20;3.40;;;;;;;4.63;100.00;97173.77;137237;1278;22151;-82
2024/02/07 11:33:47;;;;;;;4.60;3.60;;;;;;;4.44;100.00;97194.62;137228;1278;22581;-86
2024/02/07 11:36:48;;;;;;;4.80;3.50;;;;;;;4.31;100.00;97189.13;137211;1278;22115;-86
2024/02/07 11:39:49;;;;;;;5.90;3.50;;;;;;;4.26;100.00;97200.08;137204;1278;22785;-84
2024/02/07 11:42:50;;;;;;;4.20;3.10;;;;;;;4.23;100.00;97195.58;137215;1278;22125;-83
2024/02/07 11:45:51;;;;;;;4.70;2.50;;;;;;;4.20;100.00;97203.64;137201;1278;22118;-83
2024/02/07 11:48:53;;;;;;;7.90;3.50;;;;;;;4.17;100.00;97207.91;137256;1278;22462;-86
2024/02/07 11:51:58;;;;;;;5.50;2.90;;;;;;;4.17;100.00;97212.39;137213;1278;22147;-82
2024/02/07 11:54:59;;;;;;;7.60;4.80;;;;;;;4.23;100.00;97214.52;137213;1278;22225;-84
2024/02/07 11:58:04;;;;;;;6.70;4.70;;;;;;;4.25;100.00;97215.05;137264;1278;22227;-84
2024/02/07 12:01:05;;;;;;;3.80;2.00;;;;;;;4.24;100.00;97216.59;137226;1278;22148;-84
2024/02/07 12:04:06;;;;;;;2.40;1.70;;;;;;;4.26;100.00;97214.20;137224;1278;22603;-82
2024/02/07 12:07:08;;;;;;;4.00;2.30;;;;;;;4.25;100.00;97216.09;137235;1278;22064;-83
2024/02/07 12:10:09;;;;;;;3.70;2.80;;;;;;;4.24;100.00;97212.63;137187;1278;22135;-82
2024/02/07 12:13:10;;;;;;;8.00;5.20;;;;;;;4.13;100.00;97219.05;137260;1278;22159;-82
2024/02/07 12:16:11;;;;;;;5.20;3.60;;;;;;;4.05;100.00;97214.16;137257;1278;22206;-84
2024/02/07 12:19:12;;;;;;;2.90;2.60;;;;;;;4.05;100.00;97225.51;137261;1278;22137;-82
2024/02/07 12:22:13;;;;;;;2.40;1.80;;;;;;;4.01;100.00;97229.42;137227;1278;22146;-83
2024/02/07 12:25:14;;;;;;;6.30;4.50;;;;;;;3.95;100.00;97229.52;137216;1278;22146;-84
2024/02/07 12:28:17;;;;;;;4.70;3.40;;;;;;;3.97;100.00;97231.44;137177;1278;22104;-82
2024/02/07 12:31:18;;;;;;;4.40;3.30;;;;;;;3.97;100.00;97244.86;137164;1278;22113;-83
2024/02/07 12:34:19;;;;;;;3.40;2.90;;;;;;;3.98;100.00;97246.77;137191;1278;22108;-83
2024/02/07 12:37:22;;;;;;;2.10;1.90;;;;;;;4.07;100.00;97250.50;137168;1278;22250;-83
2024/02/07 12:40:27;;;;;;;3.60;2.50;;;;;;;4.00;100.00;97257.29;136932;1278;22132;-84
2024/02/07 12:43:28;;;;;;;3.40;2.70;;;;;;;4.02;100.00;97251.81;137205;1276;22095;-84
2024/02/07 12:46:30;;;;;;;4.10;2.80;;;;;;;4.00;100.00;97251.45;137226;1278;22175;-84
2024/02/07 12:49:31;;;;;;;5.10;4.20;;;;;;;3.94;100.00;97259.98;137166;1278;22106;-84
2024/02/07 12:52:32;;;;;;;3.00;2.40;;;;;;;3.85;100.00;97254.18;137217;1278;22510;-83
2024/02/07 12:55:33;;;;;;;6.90;2.20;;;;;;;3.83;100.00;97259.48;137224;1273;22062;-85
2024/02/07 12:58:34;;;;;;;2.70;2.40;;;;;;;3.84;100.00;97257.45;137255;1278;22102;-85
2024/02/07 13:01:38;;;;;;;4.20;1.90;;;;;;;3.84;100.00;97257.79;137275;1278;22474;-83
2024/02/07 13:04:39;;;;;;;3.50;2.20;;;;;;;3.74;100.00;97262.13;137252;1278;22279;-84
2024/02/07 13:07:40;;;;;;;6.70;3.10;;;;;;;3.63;100.00;97267.48;137262;1278;22139;-83
2024/02/07 13:10:42;;;;;;;6.00;3.00;;;;;;;3.59;100.00;97279.29;137275;1278;22120;-84
2024/02/07 13:13:43;;;;;;;6.60;2.90;;;;;;;3.52;100.00;97288.48;137195;1278;22112;-84
2024/02/07 13:16:45;;;;;;;9.60;4.20;;;;;;;3.50;100.00;97285.36;137275;1278;22111;-83
2024/02/07 13:19:46;;;;;;;6.60;3.80;;;;;;;3.48;100.00;97285.67;137175;1278;22113;-82
2024/02/07 13:22:47;;;;;;;10.60;4.20;;;;;;;3.45;100.00;97278.89;137166;1278;22099;-84
2024/02/07 13:25:50;;;;;;;10.80;4.90;;;;;;;3.40;100.00;97286.20;137119;1278;22713;-85
2024/02/07 13:28:51;;;;;;;8.20;5.00;;;;;;;3.34;100.00;97291.27;137104;1278;22143;-83
2024/02/07 13:31:52;;;;;;;7.90;4.60;;;;;;;3.32;100.00;97282.83;137117;1278;22086;-83
2024/02/07 13:34:53;;;;;;;10.70;6.10;;;;;;;3.29;100.00;97283.98;137089;1278;22155;-82
2024/02/07 13:37:58;;;;;;;14.60;8.00;;;;;;;3.29;100.00;97286.73;137117;1278;22089;-81
2024/02/07 13:40:59;;;;;;;;;;;;;;;3.30;100.00;97291.90;137111;1278;22290;-83
2024/02/07 13:44:00;;;;;;;13.80;7.60;;;;;;;3.32;100.00;97295.38;137109;1278;22153;-83
2024/02/07 13:47:01;;;;;;;20.80;9.90;;;;;;;3.36;100.00;97301.62;137139;1278;22159;-83
2024/02/07 13:50:03;;;;;;;15.20;7.80;;;;;;;3.36;100.00;97305.58;137091;1278;22161;-84
2024/02/07 13:53:06;;;;;;;15.30;7.80;;;;;;;3.39;100.00;97307.69;137064;1278;22582;-82
2024/02/07 13:56:07;;;;;;;23.30;11.30;;;;;;;3.40;100.00;97316.47;137103;1278;22070;-83
2024/02/07 13:59:08;;;;;;;24.90;11.20;;;;;;;3.40;100.00;97313.71;137105;1278;22192;-83
2024/02/07 14:02:09;;;;;;;17.40;9.10;;;;;;;3.42;100.00;97319.94;137134;1278;22136;-84
2024/02/07 14:05:11;;;;;;;14.10;7.20;;;;;;;3.41;100.00;97329.23;137104;1278;22110;-83
2024/02/07 14:08:12;;;;;;;11.90;7.10;;;;;;;3.38;100.00;97325.90;137107;1278;22087;-83
2024/02/07 14:11:13;;;;;;;12.40;5.60;;;;;;;3.40;100.00;97323.19;137157;1278;22132;-84
2024/02/07 14:14:14;;;;;;;9.70;4.70;;;;;;;3.48;100.00;97331.59;137168;1278;22063;-82
2024/02/07 14:17:16;;;;;;;5.30;3.80;;;;;;;3.49;100.00;97335.40;137173;1278;22084;-82
2024/02/07 14:20:17;;;;;;;15.30;5.70;;;;;;;3.47;100.00;97332.94;137086;1266;22136;-81
2024/02/07 14:23:18;;;;;;;17.80;8.10;;;;;;;3.45;100.00;97329.80;137088;1278;22092;-82
2024/02/07 14:26:19;;;;;;;10.70;6.40;;;;;;;3.46;100.00;97325.52;137087;1278;22098;-83
2024/02/07 14:29:20;;;;;;;10.70;5.00;;;;;;;3.45;100.00;97327.56;137112;1278;22168;-83
2024/02/07 14:32:22;;;;;;;7.80;4.20;;;;;;;3.44;100.00;97321.02;137059;1278;22160;-83
2024/02/07 14:35:23;;;;;;;9.70;4.60;;;;;;;3.42;100.00;97311.17;137048;1278;22487;-82
2024/02/07 14:38:27;;;;;;;11.30;5.20;;;;;;;3.39;100.00;97308.54;137117;1278;22121;-84
2024/02/07 14:41:29;;;;;;;;;;;;;;;3.39;100.00;97309.58;137096;1278;22267;-83
2024/02/07 14:44:30;;;;;;;11.40;7.10;;;;;;;3.38;100.00;97314.55;137093;1273;22111;-83
2024/02/07 14:47:31;;;;;;;13.20;7.60;;;;;;;3.38;100.00;97317.48;137116;1278;22135;-83
2024/02/07 14:50:32;;;;;;;13.80;6.30;;;;;;;3.36;100.00;97314.34;137083;1278;22126;-82
2024/02/07 14:53:33;;;;;;;13.20;7.10;;;;;;;3.33;100.00;97315.49;137080;1278;22127;-84
2024/02/07 14:56:36;;;;;;;15.50;8.70;;;;;;;3.30;100.00;97325.42;137123;1278;22161;-83
2024/02/07 14:59:37;;;;;;;17.40;8.70;;;;;;;3.29;100.00;97322.14;137158;1276;22114;-83
2024/02/07 15:02:38;;;;;;;17.30;9.10;;;;;;;3.28;100.00;97318.17;137148;1273;22602;-84
2024/02/07 15:05:39;;;;;;;15.60;7.60;;;;;;;3.27;100.00;97311.80;137163;1278;22097;-83